Time;durP1;ratioP1;P1;durP2;ratioP2;P2;SDS_P1;SDS_P2;PMS_P1;PMS_P2;Temp;Humidity;BMP_temperature;BMP_pressure;BME280_temperature;BME280_humidity;BME280_pressure;Samples;Min_cycle;Max_cycle;Signal;HPM_P1;HPM_P2
2022/12/22 05:09:16;;;;;;;67.28;35.75;;;;;;;4.93;87.34;100640.06;5610619;31;251281;-54
2022/12/22 05:15:40;;;;;;;60.08;36.28;;;;;;;4.55;83.14;100645.12;5603792;31;33570;-54
2022/12/22 05:18:44;;;;;;;66.15;36.95;;;;;;;4.59;83.42;100647.06;5603277;31;34222;-54
2022/12/22 05:21:46;;;;;;;65.15;37.67;;;;;;;4.55;82.71;100645.12;5602383;31;33571;-53
2022/12/22 05:24:49;;;;;;;66.78;39.45;;;;;;;4.44;83.06;100641.44;5603209;31;33512;-54
2022/12/22 05:27:51;;;;;;;63.25;38.50;;;;;;;4.51;82.44;100642.12;5602902;31;34234;-53
2022/12/22 05:30:54;;;;;;;61.58;38.75;;;;;;;4.54;82.94;100640.84;5601856;31;33497;-55
2022/12/22 05:33:56;;;;;;;67.78;39.30;;;;;;;4.66;87.60;100642.44;5590555;31;34279;-54
2022/12/22 05:36:58;;;;;;;67.47;40.28;;;;;;;4.67;81.95;100636.09;5583356;31;33519;-54
2022/12/22 05:40:01;;;;;;;61.35;38.65;;;;;;;4.77;80.47;100646.13;5583449;31;34324;-54
2022/12/22 05:43:04;;;;;;;68.70;40.75;;;;;;;4.63;88.00;100644.75;5581882;31;33628;-54
2022/12/22 05:46:09;;;;;;;63.13;38.88;;;;;;;4.58;85.23;100642.81;5583413;32;33675;-54
2022/12/22 05:49:11;;;;;;;66.45;39.17;;;;;;;4.58;85.13;100639.34;5580151;32;34285;-54
2022/12/22 05:52:14;;;;;;;69.50;40.90;;;;;;;4.40;85.69;100635.78;5563905;32;34245;-54
2022/12/22 05:55:16;;;;;;;63.33;39.90;;;;;;;4.58;86.62;100642.00;5579009;32;33643;-54
2022/12/22 05:58:18;;;;;;;66.53;41.13;;;;;;;4.55;85.91;100635.31;5583227;31;33707;-54
2022/12/22 06:01:20;;;;;;;69.32;41.15;;;;;;;4.54;85.05;100635.53;5583258;32;33648;-54
2022/12/22 06:04:23;;;;;;;69.50;40.88;;;;;;;4.59;82.43;100641.75;5582929;31;33771;-54
2022/12/22 06:07:25;;;;;;;69.18;40.38;;;;;;;4.70;81.80;100648.06;5582650;31;33285;-54
2022/12/22 06:10:28;;;;;;;70.20;40.80;;;;;;;4.63;82.35;100640.25;5582870;32;34234;-54
2022/12/22 06:13:30;;;;;;;64.10;41.13;;;;;;;4.79;80.35;100637.91;5582749;31;34290;-54
2022/12/22 06:16:32;;;;;;;68.97;40.63;;;;;;;4.65;82.04;100645.31;5582924;31;34515;-54
2022/12/22 06:19:34;;;;;;;66.72;41.42;;;;;;;4.59;83.36;100654.22;5574318;32;33195;-54
2022/12/22 06:22:37;;;;;;;67.90;42.13;;;;;;;4.62;82.82;100648.44;5569274;32;33808;-54
2022/12/22 06:25:39;;;;;;;69.12;41.40;;;;;;;4.62;82.77;100653.75;5550429;32;33744;-54
2022/12/22 06:28:41;;;;;;;74.03;41.17;;;;;;;4.53;80.99;100648.00;5569424;32;34338;-54
2022/12/22 06:31:44;;;;;;;62.40;39.92;;;;;;;4.54;82.66;100646.97;5569368;32;33649;-54
2022/12/22 06:34:46;;;;;;;67.35;40.58;;;;;;;4.55;81.73;100648.56;5568836;32;33730;-54
2022/12/22 06:37:48;;;;;;;64.57;39.60;;;;;;;4.54;80.24;100651.47;5569540;32;33666;-54
2022/12/22 06:40:50;;;;;;;64.72;40.40;;;;;;;4.52;79.70;100643.72;5568655;32;33540;-55
2022/12/22 06:43:53;;;;;;;63.85;40.47;;;;;;;4.57;79.24;100656.28;5568752;31;33737;-54
2022/12/22 06:46:55;;;;;;;62.85;39.97;;;;;;;4.67;77.91;100652.03;5564125;32;33496;-54
2022/12/22 06:49:57;;;;;;;63.65;39.08;;;;;;;4.68;77.77;100658.94;5569118;32;34298;-55
2022/12/22 06:53:00;;;;;;;63.33;39.75;;;;;;;4.65;77.08;100655.94;5569053;32;33226;-54
2022/12/22 06:56:02;;;;;;;60.12;37.38;;;;;;;4.72;77.46;100657.44;5569448;32;33751;-54
2022/12/22 06:59:04;;;;;;;64.37;40.47;;;;;;;4.52;79.94;100650.87;5568756;32;33609;-54
2022/12/22 07:02:09;;;;;;;67.15;41.33;;;;;;;4.63;78.17;100666.78;5568409;32;33594;-54
2022/12/22 07:05:14;;;;;;;64.12;40.67;;;;;;;4.73;78.29;100660.87;5559602;32;34490;-54
2022/12/22 07:08:16;;;;;;;63.08;40.90;;;;;;;4.80;77.67;100666.91;5553860;32;33722;-54
2022/12/22 07:11:19;;;;;;;67.47;39.58;;;;;;;4.89;77.37;100660.16;5558203;32;33587;-54
2022/12/22 07:14:21;;;;;;;68.47;40.88;;;;;;;4.79;80.92;100659.94;5555815;32;33350;-54
2022/12/22 07:17:24;;;;;;;60.35;39.55;;;;;;;4.88;80.78;100671.03;5554308;32;33689;-54
2022/12/22 07:20:26;;;;;;;67.80;40.95;;;;;;;5.01;78.36;100660.13;5568143;32;33760;-54
2022/12/22 07:23:29;;;;;;;64.05;39.38;;;;;;;4.94;77.21;100667.44;5568762;32;33684;-54
2022/12/22 07:26:31;;;;;;;64.18;40.22;;;;;;;4.94;76.99;100662.12;5568339;32;33812;-54
2022/12/22 07:29:35;;;;;;;66.82;40.67;;;;;;;4.80;83.14;100652.78;5568200;32;33612;-54
2022/12/22 07:32:37;;;;;;;67.32;41.60;;;;;;;4.77;87.95;100658.56;5566940;32;33697;-54
2022/12/22 07:35:39;;;;;;;66.87;39.70;;;;;;;4.82;80.75;100662.12;5568693;32;33715;-54
2022/12/22 07:38:44;;;;;;;62.08;38.95;;;;;;;4.92;79.20;100661.53;5568616;32;33796;-54
2022/12/22 07:45:07;;;;;;;64.22;38.88;;;;;;;5.06;76.63;100665.53;5568588;32;34368;-54
2022/12/22 07:51:33;;;;;;;72.30;41.63;;;;;;;4.99;77.58;100683.47;5568426;32;33591;-54
2022/12/22 07:54:35;;;;;;;65.90;38.72;;;;;;;4.89;79.19;100681.41;5567953;32;33870;-54
2022/12/22 07:57:43;;;;;;;63.35;39.22;;;;;;;4.89;77.38;100684.06;5568452;32;33670;-54
2022/12/22 08:00:46;;;;;;;65.60;39.83;;;;;;;5.01;74.70;100680.59;5567734;32;33554;-54
2022/12/22 08:03:48;;;;;;;64.57;39.08;;;;;;;4.96;76.78;100683.94;5568679;32;33730;-54
2022/12/22 08:06:50;;;;;;;65.15;40.55;;;;;;;4.89;85.47;100678.75;5568126;32;34211;-54
2022/12/22 08:09:53;;;;;;;72.75;41.72;;;;;;;4.85;80.03;100677.63;5568564;32;33609;-54
2022/12/22 08:12:55;;;;;;;65.70;41.92;;;;;;;5.01;79.86;100672.62;5563766;32;33793;-54
2022/12/22 08:16:09;;;;;;;66.65;41.90;;;;;;;5.07;77.02;100672.47;5567724;32;34332;-55
2022/12/22 08:19:11;;;;;;;71.43;42.62;;;;;;;5.03;77.68;100689.91;5568632;32;33699;-54
2022/12/22 08:22:13;;;;;;;67.32;43.38;;;;;;;5.18;95.53;100684.09;5567624;32;33595;-54
2022/12/22 08:25:16;;;;;;;67.50;41.97;;;;;;;5.10;82.08;100684.47;5568231;32;33549;-54
2022/12/22 08:28:18;;;;;;;70.20;42.97;;;;;;;5.11;80.40;100678.94;5568372;32;34411;-54
2022/12/22 08:31:23;;;;;;;65.47;41.97;;;;;;;5.18;77.36;100679.59;5568351;32;33696;-53
2022/12/22 08:34:26;;;;;;;69.03;42.80;;;;;;;5.05;77.31;100679.06;5564019;32;33440;-55
2022/12/22 08:37:32;;;;;;;72.20;42.90;;;;;;;5.11;84.05;100678.94;5568343;32;34263;-54
2022/12/22 08:40:35;;;;;;;68.20;42.38;;;;;;;5.23;78.29;100664.78;5567787;32;33150;-54
2022/12/22 08:43:37;;;;;;;73.80;42.53;;;;;;;5.23;77.51;100668.28;5566325;32;33628;-54
2022/12/22 08:46:39;;;;;;;71.28;44.53;;;;;;;5.22;78.16;100669.28;5567499;32;33773;-54
2022/12/22 08:49:42;;;;;;;72.70;44.13;;;;;;;5.42;82.21;100677.63;5568190;32;33710;-54
2022/12/22 08:52:44;;;;;;;73.45;43.17;;;;;;;5.30;76.52;100674.25;5564311;32;33457;-54
2022/12/22 08:55:54;;;;;;;77.25;44.10;;;;;;;5.35;82.76;100674.31;5560758;32;34243;-54
2022/12/22 08:58:57;;;;;;;71.05;43.45;;;;;;;5.50;78.14;100684.44;5567862;32;33291;-54
2022/12/22 09:02:03;;;;;;;69.70;43.55;;;;;;;5.36;76.00;100688.41;5567733;32;33919;-54
2022/12/22 09:05:06;;;;;;;72.80;43.15;;;;;;;5.40;80.49;100671.75;5566508;32;34377;-54
2022/12/22 09:08:09;;;;;;;70.05;44.83;;;;;;;5.78;94.76;100672.94;5567225;32;33581;-54
2022/12/22 09:11:11;;;;;;;74.53;45.88;;;;;;;5.92;86.30;100669.97;5567537;32;34320;-54
2022/12/22 09:14:13;;;;;;;69.75;42.42;;;;;;;5.76;75.25;100656.44;5548652;32;33524;-54
2022/12/22 09:17:16;;;;;;;73.07;44.42;;;;;;;5.77;94.04;100659.91;5560411;32;34294;-54
2022/12/22 09:20:18;;;;;;;74.20;45.97;;;;;;;5.71;84.63;100656.34;5567087;32;33254;-54
2022/12/22 09:23:20;;;;;;;80.72;45.00;;;;;;;5.93;83.93;100639.66;5567528;32;33239;-54
2022/12/22 09:26:25;;;;;;;70.68;44.03;;;;;;;5.75;77.18;100632.72;5567730;32;33360;-54
2022/12/22 09:29:27;;;;;;;69.28;44.55;;;;;;;5.58;74.57;100636.16;5565986;32;33336;-54
2022/12/22 09:32:29;;;;;;;65.85;40.85;;;;;;;5.63;79.89;100636.28;5567079;32;34208;-54
2022/12/22 09:35:32;;;;;;;62.13;38.75;;;;;;;5.98;87.41;100637.91;5567611;32;34187;-54
2022/12/22 09:38:35;;;;;;;69.07;42.00;;;;;;;5.83;87.99;100635.78;5566767;32;33636;-54
2022/12/22 09:41:53;;;;;;;69.18;41.50;;;;;;;5.79;81.53;100629.31;5566207;32;34479;-54
2022/12/22 09:44:55;;;;;;;63.97;41.05;;;;;;;5.91;75.17;100631.91;5566762;32;34217;-54
2022/12/22 09:48:00;;;;;;;63.58;41.65;;;;;;;5.83;73.50;100627.81;5567116;32;33982;-54
2022/12/22 09:51:04;;;;;;;74.45;42.33;;;;;;;5.78;73.67;100624.25;5566366;32;33613;-54
2022/12/22 09:54:11;;;;;;;71.00;44.35;;;;;;;6.16;91.80;100636.00;5567346;32;33694;-54
2022/12/22 09:57:13;;;;;;;72.78;42.92;;;;;;;5.93;74.03;100615.72;5569230;32;34421;-54
2022/12/22 10:00:18;;;;;;;69.35;42.85;;;;;;;5.81;73.28;100619.25;5560407;32;34381;-54
2022/12/22 10:03:57;;;;;;;68.95;40.88;;;;;;;5.96;84.76;100608.09;5566070;32;34383;-54
2022/12/22 10:07:12;;;;;;;65.15;41.15;;;;;;;5.77;84.79;100606.69;5568871;32;33725;-54
2022/12/22 10:10:27;;;;;;;70.68;43.17;;;;;;;5.82;85.34;100602.22;5569666;32;34346;-54
2022/12/22 10:13:29;;;;;;;65.95;43.55;;;;;;;5.77;77.16;100606.69;5567150;32;33687;-54
2022/12/22 10:16:32;;;;;;;78.35;44.88;;;;;;;5.70;73.24;100601.53;5568741;32;33692;-54
2022/12/22 10:19:34;;;;;;;70.80;45.47;;;;;;;5.60;73.25;100596.06;5565076;32;33794;-54
2022/12/22 10:22:58;;;;;;;74.07;45.85;;;;;;;5.63;73.38;100593.72;5566794;32;34354;-55
2022/12/22 10:26:14;;;;;;;75.25;44.40;;;;;;;5.63;74.01;100593.72;5568961;32;33403;-54
2022/12/22 10:29:33;;;;;;;76.15;44.13;;;;;;;5.85;87.28;100590.31;5569137;32;33719;-54
2022/12/22 10:32:35;;;;;;;68.40;43.05;;;;;;;6.33;89.36;100588.88;5569438;32;33697;-54
2022/12/22 10:35:47;;;;;;;72.22;43.78;;;;;;;6.06;78.66;100588.75;5569102;32;33806;-54
2022/12/22 10:39:09;;;;;;;75.87;45.53;;;;;;;6.75;85.99;100590.97;5569414;32;33664;-55
2022/12/22 10:42:13;;;;;;;72.25;44.25;;;;;;;6.94;88.38;100581.59;5569439;32;33619;-54
2022/12/22 10:45:19;;;;;;;82.20;49.28;;;;;;;6.96;92.43;100571.50;5567680;32;34400;-54
2022/12/22 10:48:28;;;;;;;80.95;46.55;;;;;;;6.83;74.53;100567.38;5567849;32;33634;-54
2022/12/22 10:51:30;;;;;;;85.53;50.10;;;;;;;6.71;84.73;100563.22;5568734;32;33932;-54
2022/12/22 10:54:37;;;;;;;82.35;47.75;;;;;;;6.69;74.14;100552.84;5568567;32;34378;-54
2022/12/22 10:57:39;;;;;;;;;;;;;;;6.74;87.84;100552.88;5569803;32;34403;-54
2022/12/22 11:00:43;;;;;;;77.85;47.30;;;;;;;6.78;90.52;100540.66;5569488;32;34170;-54
2022/12/22 11:03:46;;;;;;;79.10;49.17;;;;;;;6.65;81.58;100540.25;5568892;32;33309;-54
2022/12/22 11:06:49;;;;;;;78.25;47.42;;;;;;;6.49;72.76;100558.72;5568633;32;33724;-54
2022/12/22 11:09:51;;;;;;;70.70;44.67;;;;;;;6.21;72.28;100564.22;5567872;32;34314;-54
2022/12/22 11:13:05;;;;;;;72.15;44.75;;;;;;;6.08;72.88;100555.53;5568776;32;34130;-54
2022/12/22 11:16:13;;;;;;;69.97;41.22;;;;;;;5.95;72.96;100560.41;5569019;32;34029;-54
2022/12/22 11:19:31;;;;;;;71.85;41.65;;;;;;;6.42;90.50;100560.75;5568820;32;33638;-54
2022/12/22 11:22:40;;;;;;;72.62;43.78;;;;;;;6.51;73.72;100545.97;5569151;32;34402;-54
2022/12/22 11:26:05;;;;;;;70.45;43.53;;;;;;;6.24;70.30;100548.56;5569464;32;34417;-54
2022/12/22 11:29:38;;;;;;;70.55;43.45;;;;;;;6.27;81.47;100553.41;5566334;32;33643;-54
2022/12/22 11:33:07;;;;;;;76.90;43.55;;;;;;;6.42;74.46;100539.44;5568197;32;33668;-54
2022/12/22 11:36:24;;;;;;;69.53;42.85;;;;;;;6.77;83.28;100541.72;5544722;32;33989;-55
2022/12/22 11:39:38;;;;;;;69.47;44.13;;;;;;;6.56;74.32;100538.03;5569302;32;34448;-54
2022/12/22 11:43:08;;;;;;;68.00;40.55;;;;;;;6.48;76.17;100527.81;5568493;32;33849;-54
2022/12/22 11:46:29;;;;;;;75.72;43.92;;;;;;;6.50;81.41;100536.38;5568595;32;33826;-54
2022/12/22 11:50:05;;;;;;;73.87;44.20;;;;;;;6.30;71.21;100541.47;5568816;32;33784;-55
2022/12/22 11:53:56;;;;;;;74.82;44.83;;;;;;;6.08;69.71;100554.75;5568883;32;33726;-54
2022/12/22 11:57:09;;;;;;;76.75;44.58;;;;;;;5.99;70.68;100540.22;5552135;32;34203;-54
2022/12/22 12:00:14;;;;;;;71.40;44.58;;;;;;;6.20;73.33;100541.34;5549415;32;33957;-54
2022/12/22 12:03:39;;;;;;;79.70;45.60;;;;;;;6.28;72.23;100530.22;5566328;32;33726;-54
2022/12/22 12:06:58;;;;;;;77.90;44.60;;;;;;;6.16;72.68;100526.88;5568876;32;34404;-54
2022/12/22 12:10:05;;;;;;;71.90;44.05;;;;;;;6.35;82.89;100536.97;5568798;32;34454;-54
2022/12/22 12:13:32;;;;;;;73.82;43.30;;;;;;;6.19;75.50;100526.38;5568421;32;33267;-54
2022/12/22 12:16:43;;;;;;;73.62;45.12;;;;;;;6.59;88.81;100537.53;5567996;32;34211;-54
2022/12/22 12:20:20;;;;;;;81.35;46.33;;;;;;;6.79;81.72;100534.28;5568383;32;33764;-55
2022/12/22 12:23:34;;;;;;;77.55;47.92;;;;;;;6.54;72.23;100540.12;5544234;31;33534;-54
2022/12/22 12:26:57;;;;;;;89.47;53.50;;;;;;;6.50;81.26;100522.25;5568757;32;33693;-54
2022/12/22 12:30:17;;;;;;;136.68;93.18;;;;;;;6.29;75.36;100521.19;5568387;32;33989;-54
2022/12/22 12:33:48;;;;;;;145.62;73.72;;;;;;;6.67;89.17;100517.63;5568412;32;33712;-54
2022/12/22 12:37:21;;;;;;;110.18;70.95;;;;;;;6.76;91.26;100516.13;5568117;32;33846;-54
2022/12/22 12:40:46;;;;;;;77.70;47.90;;;;;;;6.86;85.56;100536.75;5548212;31;33913;-54
2022/12/22 12:43:52;;;;;;;73.60;45.05;;;;;;;6.64;73.20;100551.97;5568408;32;33729;-54
2022/12/22 12:47:23;;;;;;;82.60;48.55;;;;;;;6.83;95.47;100556.72;5568484;32;34351;-54
2022/12/22 12:50:32;;;;;;;71.87;45.08;;;;;;;7.09;83.48;100551.63;5561472;31;32195;-55
2022/12/22 12:54:04;;;;;;;80.47;49.22;;;;;;;6.89;94.78;100560.25;5568330;32;33700;-54
2022/12/22 12:57:23;;;;;;;78.95;46.50;;;;;;;7.07;84.21;100557.19;5566928;32;34333;-54
2022/12/22 13:00:31;;;;;;;80.60;47.53;;;;;;;7.02;88.72;100551.84;5548680;32;33704;-54
2022/12/22 13:03:39;;;;;;;76.37;46.42;;;;;;;7.07;82.40;100540.41;5548677;32;33559;-54
2022/12/22 13:07:01;;;;;;;77.60;48.03;;;;;;;7.00;90.39;100543.28;5548039;32;33780;-54
2022/12/22 13:10:18;;;;;;;74.15;47.15;;;;;;;7.07;77.60;100540.41;5554891;32;33759;-54
2022/12/22 13:13:25;;;;;;;77.12;49.80;;;;;;;6.78;91.48;100534.53;5548605;32;33304;-54
2022/12/22 13:16:34;;;;;;;78.40;47.83;;;;;;;6.64;73.61;100535.97;5548554;32;33830;-54
2022/12/22 13:19:36;;;;;;;77.85;47.33;;;;;;;6.83;85.17;100532.72;5548760;32;34407;-54
2022/12/22 13:22:42;;;;;;;80.22;48.78;;;;;;;6.82;91.50;100528.47;5548647;32;33849;-54
2022/12/22 13:25:48;;;;;;;74.78;46.85;;;;;;;6.90;87.47;100519.19;5548325;32;33781;-54
2022/12/22 13:28:56;;;;;;;72.95;47.45;;;;;;;6.68;80.30;100521.91;5548893;32;34332;-55
2022/12/22 13:32:01;;;;;;;85.00;47.65;;;;;;;6.62;82.68;100517.56;5550249;32;33492;-54
2022/12/22 13:35:23;;;;;;;80.85;47.85;;;;;;;6.45;76.37;100514.19;5550506;32;33633;-54
2022/12/22 13:38:37;;;;;;;81.03;53.95;;;;;;;6.39;79.29;100509.84;5558459;32;33689;-56
2022/12/22 13:41:43;;;;;;;74.62;48.97;;;;;;;6.38;74.48;100505.59;5557519;32;33264;-54
2022/12/22 13:44:45;;;;;;;78.70;48.30;;;;;;;6.50;90.50;100507.06;5566443;32;33656;-54
2022/12/22 13:47:48;;;;;;;78.53;49.38;;;;;;;6.39;91.24;100493.88;5570229;32;33749;-55
2022/12/22 13:50:58;;;;;;;73.85;48.92;;;;;;;6.47;86.75;100491.59;5569791;32;33603;-54
2022/12/22 13:54:09;;;;;;;80.18;48.85;;;;;;;6.58;86.48;100474.66;5569958;32;33660;-55
2022/12/22 13:57:17;;;;;;;83.85;48.97;;;;;;;6.45;77.83;100483.03;5570304;32;33256;-55
2022/12/22 14:00:23;;;;;;;78.37;47.62;;;;;;;6.30;78.01;100481.03;5570217;32;33776;-54
2022/12/22 14:03:25;;;;;;;79.18;48.40;;;;;;;6.21;80.80;100477.19;5569881;32;33932;-54
2022/12/22 14:06:47;;;;;;;80.32;50.00;;;;;;;6.15;78.51;100464.84;5569888;32;33636;-54
2022/12/22 14:09:54;;;;;;;76.60;48.87;;;;;;;6.19;81.93;100447.37;5569744;32;34408;-54
2022/12/22 14:12:57;;;;;;;88.07;51.42;;;;;;;6.27;81.66;100456.75;5569572;32;34386;-54
2022/12/22 14:16:01;;;;;;;78.72;48.75;;;;;;;6.22;79.07;100470.78;5569289;32;33539;-54
2022/12/22 14:19:03;;;;;;;81.85;49.55;;;;;;;6.14;80.02;100459.78;5569723;32;33708;-54
2022/12/22 14:22:12;;;;;;;88.37;54.17;;;;;;;6.01;79.46;100467.09;5569621;32;34342;-54
2022/12/22 14:25:23;;;;;;;80.18;49.67;;;;;;;6.14;90.73;100459.78;5569696;32;34350;-54
2022/12/22 14:28:29;;;;;;;69.53;45.47;;;;;;;6.04;81.09;100452.50;5569344;32;34597;-54
2022/12/22 14:31:31;;;;;;;82.32;48.58;;;;;;;6.03;91.15;100467.66;5569074;32;33725;-54
2022/12/22 14:34:34;;;;;;;72.87;47.25;;;;;;;6.22;86.48;100475.31;5569557;32;33738;-54
2022/12/22 14:37:36;;;;;;;81.03;46.80;;;;;;;6.11;91.08;100477.87;5569606;32;34290;-55
2022/12/22 14:40:40;;;;;;;81.80;48.00;;;;;;;5.98;86.90;100480.91;5569431;32;33753;-54
2022/12/22 14:43:47;;;;;;;89.32;51.08;;;;;;;5.95;81.05;100492.03;5569296;32;34466;-54
2022/12/22 14:47:14;;;;;;;87.85;50.30;;;;;;;5.83;80.36;100520.59;5569573;32;34320;-54
2022/12/22 14:50:23;;;;;;;80.85;49.95;;;;;;;5.78;83.42;100528.47;5569304;32;33635;-54
2022/12/22 14:53:36;;;;;;;87.43;52.88;;;;;;;5.80;86.78;100529.06;5569252;32;33654;-54
2022/12/22 14:56:49;;;;;;;90.03;51.97;;;;;;;6.04;98.87;100514.50;5569331;32;33503;-54
2022/12/22 15:00:05;;;;;;;83.97;51.75;;;;;;;6.08;99.63;100522.81;5569434;32;34463;-54
2022/12/22 15:03:33;;;;;;;83.85;51.88;;;;;;;5.97;86.25;100518.41;5569318;32;34354;-55
2022/12/22 15:06:42;;;;;;;83.53;49.65;;;;;;;5.99;82.03;100529.59;5562550;32;33891;-55
2022/12/22 15:09:45;;;;;;;88.32;52.72;;;;;;;5.94;85.73;100516.22;5569179;32;33715;-54
2022/12/22 15:13:17;;;;;;;88.93;52.47;;;;;;;5.91;86.76;100506.06;5569206;32;33845;-54
2022/12/22 15:16:21;;;;;;;85.95;51.35;;;;;;;5.93;82.74;100506.62;5569537;32;33354;-54
2022/12/22 15:19:28;;;;;;;87.62;53.22;;;;;;;5.82;88.10;100509.13;5569223;32;34365;-54
2022/12/22 15:22:30;;;;;;;85.32;50.80;;;;;;;5.71;83.12;100504.72;5569355;32;33267;-55
2022/12/22 15:25:33;;;;;;;87.50;50.47;;;;;;;5.68;83.67;100493.75;5569603;32;34463;-54
2022/12/22 15:28:35;;;;;;;81.65;50.42;;;;;;;5.67;87.03;100492.16;5569156;32;33603;-54
2022/12/22 15:31:40;;;;;;;80.40;50.95;;;;;;;5.76;91.20;100482.69;5569045;32;34333;-54
2022/12/22 15:34:42;;;;;;;83.57;51.28;;;;;;;5.74;83.93;100488.28;5569113;32;33737;-54
2022/12/22 15:37:45;;;;;;;90.85;51.30;;;;;;;5.75;85.93;100489.06;5569389;32;34333;-54
2022/12/22 15:40:48;;;;;;;89.18;51.53;;;;;;;5.84;91.57;100480.41;5569561;32;33511;-54
2022/12/22 15:43:50;;;;;;;80.68;50.30;;;;;;;5.86;85.99;100482.81;5569364;32;33499;-53
2022/12/22 15:46:59;;;;;;;91.25;54.10;;;;;;;5.91;96.59;100479.44;5569504;32;34497;-54
2022/12/22 15:50:02;;;;;;;89.32;52.85;;;;;;;5.85;83.70;100476.69;5568978;32;33969;-55
2022/12/22 15:53:07;;;;;;;100.90;61.03;;;;;;;5.80;92.33;100460.69;5567838;32;33776;-54
2022/12/22 15:56:16;;;;;;;98.55;57.03;;;;;;;6.05;97.47;100441.59;5569179;32;33986;-55
2022/12/22 15:59:26;;;;;;;99.62;55.85;;;;;;;5.92;84.85;100449.91;5568944;32;33800;-54
2022/12/22 16:02:29;;;;;;;101.75;58.42;;;;;;;5.70;83.76;100455.25;5568493;32;33784;-54
2022/12/22 16:05:32;;;;;;;97.97;56.65;;;;;;;5.58;84.61;100452.66;5569027;32;34352;-54
2022/12/22 16:08:37;;;;;;;97.25;55.45;;;;;;;5.60;86.02;100450.59;5566928;32;33647;-55
